sensor_id;sensor_type;location;lat;lon;timestamp;temperature;humidity
40676;DHT22;26359;48.750;9.314;2023-09-12T00:00:11;20.40;99.90
40676;DHT22;26359;48.750;9.314;2023-09-12T00:02:37;20.30;99.90
40676;DHT22;26359;48.750;9.314;2023-09-12T00:05:03;20.30;99.90
40676;DHT22;26359;48.750;9.314;2023-09-12T00:07:30;20.30;99.90
40676;DHT22;26359;48.750;9.314;2023-09-12T00:09:55;20.30;99.90
40676;DHT22;26359;48.750;9.314;2023-09-12T00:12:23;20.30;99.90
40676;DHT22;26359;48.750;9.314;2023-09-12T00:14:49;20.30;99.90
40676;DHT22;26359;48.750;9.314;2023-09-12T00:17:14;20.30;99.90
40676;DHT22;26359;48.750;9.314;2023-09-12T00:19:40;20.20;99.90
40676;DHT22;26359;48.750;9.314;2023-09-12T00:22:05;20.30;99.90
40676;DHT22;26359;48.750;9.314;2023-09-12T00:24:31;20.20;99.90
40676;DHT22;26359;48.750;9.314;2023-09-12T00:26:56;20.10;99.90
40676;DHT22;26359;48.750;9.314;2023-09-12T00:29:22;20.10;99.90
40676;DHT22;26359;48.750;9.314;2023-09-12T00:31:47;20.10;99.90
40676;DHT22;26359;48.750;9.314;2023-09-12T00:34:17;20.10;99.90
40676;DHT22;26359;48.750;9.314;2023-09-12T00:36:43;20.10;99.90
40676;DHT22;26359;48.750;9.314;2023-09-12T00:39:08;20.00;99.90
40676;DHT22;26359;48.750;9.314;2023-09-12T00:41:34;19.90;99.90
40676;DHT22;26359;48.750;9.314;2023-09-12T00:43:59;19.90;99.90
40676;DHT22;26359;48.750;9.314;2023-09-12T00:46:26;20.00;99.90
40676;DHT22;26359;48.750;9.314;2023-09-12T00:48:53;20.00;99.90
40676;DHT22;26359;48.750;9.314;2023-09-12T00:51:20;19.90;99.90
40676;DHT22;26359;48.750;9.314;2023-09-12T00:53:47;19.80;99.90
40676;DHT22;26359;48.750;9.314;2023-09-12T00:56:13;19.80;99.90
40676;DHT22;26359;48.750;9.314;2023-09-12T00:58:39;19.60;99.90
40676;DHT22;26359;48.750;9.314;2023-09-12T01:01:05;19.70;99.90
40676;DHT22;26359;48.750;9.314;2023-09-12T01:03:31;19.80;99.90
40676;DHT22;26359;48.750;9.314;2023-09-12T01:05:59;19.80;99.90
40676;DHT22;26359;48.750;9.314;2023-09-12T01:08:25;19.70;99.90
40676;DHT22;26359;48.750;9.314;2023-09-12T01:10:52;19.60;99.90
40676;DHT22;26359;48.750;9.314;2023-09-12T01:13:19;19.60;99.90
40676;DHT22;26359;48.750;9.314;2023-09-12T01:15:45;19.60;99.90
40676;DHT22;26359;48.750;9.314;2023-09-12T01:18:10;19.60;99.90
40676;DHT22;26359;48.750;9.314;2023-09-12T01:20:39;19.60;99.90
40676;DHT22;26359;48.750;9.314;2023-09-12T01:26:17;19.50;99.90
40676;DHT22;26359;48.750;9.314;2023-09-12T01:28:45;19.60;99.90
40676;DHT22;26359;48.750;9.314;2023-09-12T01:31:13;19.60;99.90
40676;DHT22;26359;48.750;9.314;2023-09-12T01:33:40;19.60;99.90
40676;DHT22;26359;48.750;9.314;2023-09-12T01:36:05;19.70;99.90
40676;DHT22;26359;48.750;9.314;2023-09-12T01:38:31;19.50;99.90
40676;DHT22;26359;48.750;9.314;2023-09-12T01:40:56;19.50;99.90
40676;DHT22;26359;48.750;9.314;2023-09-12T01:43:24;19.50;99.90
40676;DHT22;26359;48.750;9.314;2023-09-12T01:45:53;19.40;99.90
40676;DHT22;26359;48.750;9.314;2023-09-12T01:48:22;19.40;99.90
40676;DHT22;26359;48.750;9.314;2023-09-12T01:50:49;19.40;99.90
40676;DHT22;26359;48.750;9.314;2023-09-12T01:53:15;19.40;99.90
40676;DHT22;26359;48.750;9.314;2023-09-12T01:55:45;19.40;99.90
40676;DHT22;26359;48.750;9.314;2023-09-12T01:58:14;19.20;99.90
40676;DHT22;26359;48.750;9.314;2023-09-12T02:00:40;19.30;99.90
40676;DHT22;26359;48.750;9.314;2023-09-12T02:03:06;19.30;99.90
40676;DHT22;26359;48.750;9.314;2023-09-12T02:05:32;19.30;99.90
40676;DHT22;26359;48.750;9.314;2023-09-12T02:07:58;19.30;99.90
40676;DHT22;26359;48.750;9.314;2023-09-12T02:10:26;19.20;99.90
40676;DHT22;26359;48.750;9.314;2023-09-12T02:12:52;19.20;99.90
40676;DHT22;26359;48.750;9.314;2023-09-12T02:15:18;19.20;99.90
40676;DHT22;26359;48.750;9.314;2023-09-12T02:17:43;19.20;99.90
40676;DHT22;26359;48.750;9.314;2023-09-12T02:20:09;19.10;99.90
40676;DHT22;26359;48.750;9.314;2023-09-12T02:22:35;19.20;99.90
40676;DHT22;26359;48.750;9.314;2023-09-12T02:25:03;19.20;99.90
40676;DHT22;26359;48.750;9.314;2023-09-12T02:27:30;19.20;99.90
40676;DHT22;26359;48.750;9.314;2023-09-12T02:29:55;19.20;99.90
40676;DHT22;26359;48.750;9.314;2023-09-12T02:32:21;19.20;99.90
40676;DHT22;26359;48.750;9.314;2023-09-12T02:34:46;19.20;99.90
40676;DHT22;26359;48.750;9.314;2023-09-12T02:37:12;19.20;99.90
40676;DHT22;26359;48.750;9.314;2023-09-12T02:39:37;19.20;99.90
40676;DHT22;26359;48.750;9.314;2023-09-12T02:42:03;19.20;99.90
40676;DHT22;26359;48.750;9.314;2023-09-12T02:44:29;19.10;99.90
40676;DHT22;26359;48.750;9.314;2023-09-12T02:46:54;19.20;99.90
40676;DHT22;26359;48.750;9.314;2023-09-12T02:49:20;19.10;99.90
40676;DHT22;26359;48.750;9.314;2023-09-12T02:51:45;19.00;99.90
40676;DHT22;26359;48.750;9.314;2023-09-12T02:54:11;19.00;99.90
40676;DHT22;26359;48.750;9.314;2023-09-12T02:56:36;18.90;99.90
40676;DHT22;26359;48.750;9.314;2023-09-12T02:59:02;19.00;99.90
40676;DHT22;26359;48.750;9.314;2023-09-12T03:01:27;19.00;99.90
40676;DHT22;26359;48.750;9.314;2023-09-12T03:03:54;19.00;99.90
40676;DHT22;26359;48.750;9.314;2023-09-12T03:06:19;18.90;99.90
40676;DHT22;26359;48.750;9.314;2023-09-12T03:08:46;18.80;99.90
40676;DHT22;26359;48.750;9.314;2023-09-12T03:11:11;18.80;99.90
40676;DHT22;26359;48.750;9.314;2023-09-12T03:13:39;18.80;99.90
40676;DHT22;26359;48.750;9.314;2023-09-12T03:16:04;18.80;99.90
40676;DHT22;26359;48.750;9.314;2023-09-12T03:18:30;18.70;99.90
40676;DHT22;26359;48.750;9.314;2023-09-12T03:20:56;18.70;99.90
40676;DHT22;26359;48.750;9.314;2023-09-12T03:23:22;18.60;99.90
40676;DHT22;26359;48.750;9.314;2023-09-12T03:25:47;18.70;99.90
40676;DHT22;26359;48.750;9.314;2023-09-12T03:28:13;18.60;99.90
40676;DHT22;26359;48.750;9.314;2023-09-12T03:30:39;18.60;99.90
40676;DHT22;26359;48.750;9.314;2023-09-12T03:33:05;18.60;99.90
40676;DHT22;26359;48.750;9.314;2023-09-12T03:35:34;18.60;99.90
40676;DHT22;26359;48.750;9.314;2023-09-12T03:37:59;18.60;99.90
40676;DHT22;26359;48.750;9.314;2023-09-12T03:40:27;18.60;99.90
40676;DHT22;26359;48.750;9.314;2023-09-12T03:42:53;18.50;99.90
40676;DHT22;26359;48.750;9.314;2023-09-12T03:45:19;18.50;99.90
40676;DHT22;26359;48.750;9.314;2023-09-12T03:47:44;18.50;99.90
40676;DHT22;26359;48.750;9.314;2023-09-12T03:50:12;18.50;99.90
40676;DHT22;26359;48.750;9.314;2023-09-12T03:52:38;18.50;99.90
40676;DHT22;26359;48.750;9.314;2023-09-12T03:55:04;18.50;99.90
40676;DHT22;26359;48.750;9.314;2023-09-12T03:57:29;18.50;99.90
40676;DHT22;26359;48.750;9.314;2023-09-12T03:59:55;18.50;99.90
40676;DHT22;26359;48.750;9.314;2023-09-12T04:02:20;18.60;99.90
40676;DHT22;26359;48.750;9.314;2023-09-12T04:04:46;18.50;99.90
40676;DHT22;26359;48.750;9.314;2023-09-12T04:07:11;18.50;99.90
40676;DHT22;26359;48.750;9.314;2023-09-12T04:09:37;18.60;99.90
40676;DHT22;26359;48.750;9.314;2023-09-12T04:12:02;18.50;99.90
40676;DHT22;26359;48.750;9.314;2023-09-12T04:14:28;18.50;99.90
40676;DHT22;26359;48.750;9.314;2023-09-12T04:16:54;18.50;99.90
40676;DHT22;26359;48.750;9.314;2023-09-12T04:19:19;18.50;99.90
40676;DHT22;26359;48.750;9.314;2023-09-12T04:21:45;18.40;99.90
40676;DHT22;26359;48.750;9.314;2023-09-12T04:24:10;18.40;99.90
40676;DHT22;26359;48.750;9.314;2023-09-12T04:26:36;18.30;99.90
40676;DHT22;26359;48.750;9.314;2023-09-12T04:29:01;18.30;99.90
40676;DHT22;26359;48.750;9.314;2023-09-12T04:31:27;18.40;99.90
40676;DHT22;26359;48.750;9.314;2023-09-12T04:33:53;18.40;99.90
40676;DHT22;26359;48.750;9.314;2023-09-12T04:36:19;18.40;99.90
40676;DHT22;26359;48.750;9.314;2023-09-12T04:38:45;18.40;99.90
40676;DHT22;26359;48.750;9.314;2023-09-12T04:41:12;18.40;99.90
40676;DHT22;26359;48.750;9.314;2023-09-12T04:43:41;18.40;99.90
40676;DHT22;26359;48.750;9.314;2023-09-12T04:46:06;18.30;99.90
40676;DHT22;26359;48.750;9.314;2023-09-12T04:48:32;18.20;99.90
40676;DHT22;26359;48.750;9.314;2023-09-12T04:50:58;18.20;99.90
40676;DHT22;26359;48.750;9.314;2023-09-12T04:53:23;18.20;99.90
40676;DHT22;26359;48.750;9.314;2023-09-12T04:55:52;18.20;99.90
40676;DHT22;26359;48.750;9.314;2023-09-12T04:58:17;18.10;99.90
40676;DHT22;26359;48.750;9.314;2023-09-12T05:00:43;18.20;99.90
40676;DHT22;26359;48.750;9.314;2023-09-12T05:03:08;18.10;99.90
40676;DHT22;26359;48.750;9.314;2023-09-12T05:05:35;18.20;99.90
40676;DHT22;26359;48.750;9.314;2023-09-12T05:08:02;18.20;99.90
40676;DHT22;26359;48.750;9.314;2023-09-12T05:10:27;18.20;99.90
40676;DHT22;26359;48.750;9.314;2023-09-12T05:12:53;18.20;99.90
40676;DHT22;26359;48.750;9.314;2023-09-12T05:15:18;18.20;99.90
40676;DHT22;26359;48.750;9.314;2023-09-12T05:17:44;18.30;99.90
40676;DHT22;26359;48.750;9.314;2023-09-12T05:20:10;18.20;99.90
40676;DHT22;26359;48.750;9.314;2023-09-12T05:22:35;18.20;99.90
40676;DHT22;26359;48.750;9.314;2023-09-12T05:25:01;18.20;99.90
40676;DHT22;26359;48.750;9.314;2023-09-12T05:27:26;18.20;99.90
40676;DHT22;26359;48.750;9.314;2023-09-12T05:29:52;18.20;99.90
40676;DHT22;26359;48.750;9.314;2023-09-12T05:34:48;18.30;99.90
40676;DHT22;26359;48.750;9.314;2023-09-12T05:37:15;18.20;99.90
40676;DHT22;26359;48.750;9.314;2023-09-12T05:39:41;18.20;99.90
40676;DHT22;26359;48.750;9.314;2023-09-12T05:42:07;18.20;99.90
40676;DHT22;26359;48.750;9.314;2023-09-12T05:44:32;18.20;99.90
40676;DHT22;26359;48.750;9.314;2023-09-12T05:46:58;18.30;99.90
40676;DHT22;26359;48.750;9.314;2023-09-12T05:49:23;18.30;99.90
40676;DHT22;26359;48.750;9.314;2023-09-12T05:51:49;18.30;99.90
40676;DHT22;26359;48.750;9.314;2023-09-12T05:54:14;18.40;99.90
40676;DHT22;26359;48.750;9.314;2023-09-12T05:56:41;18.40;99.90
40676;DHT22;26359;48.750;9.314;2023-09-12T05:59:06;18.40;99.90
40676;DHT22;26359;48.750;9.314;2023-09-12T06:01:32;18.40;99.90
40676;DHT22;26359;48.750;9.314;2023-09-12T06:03:58;18.30;99.90
40676;DHT22;26359;48.750;9.314;2023-09-12T06:06:23;18.30;99.90
40676;DHT22;26359;48.750;9.314;2023-09-12T06:08:49;18.40;99.90
40676;DHT22;26359;48.750;9.314;2023-09-12T06:11:14;18.40;99.90
40676;DHT22;26359;48.750;9.314;2023-09-12T06:13:40;18.50;99.90
40676;DHT22;26359;48.750;9.314;2023-09-12T06:16:05;18.60;99.90
40676;DHT22;26359;48.750;9.314;2023-09-12T06:18:32;18.70;99.90
40676;DHT22;26359;48.750;9.314;2023-09-12T06:20:58;18.70;99.90
40676;DHT22;26359;48.750;9.314;2023-09-12T06:23:24;18.80;99.90
40676;DHT22;26359;48.750;9.314;2023-09-12T06:25:50;18.80;99.90
40676;DHT22;26359;48.750;9.314;2023-09-12T06:28:27;18.90;99.90
40676;DHT22;26359;48.750;9.314;2023-09-12T06:30:53;19.00;99.90
40676;DHT22;26359;48.750;9.314;2023-09-12T06:33:19;19.00;99.90
40676;DHT22;26359;48.750;9.314;2023-09-12T06:35:48;19.10;99.90
40676;DHT22;26359;48.750;9.314;2023-09-12T06:38:15;19.20;99.90
40676;DHT22;26359;48.750;9.314;2023-09-12T06:40:42;19.30;99.90
40676;DHT22;26359;48.750;9.314;2023-09-12T06:43:08;19.40;99.90
40676;DHT22;26359;48.750;9.314;2023-09-12T06:45:34;19.40;99.90
40676;DHT22;26359;48.750;9.314;2023-09-12T06:48:03;19.40;99.90
40676;DHT22;26359;48.750;9.314;2023-09-12T06:50:29;19.40;99.90
40676;DHT22;26359;48.750;9.314;2023-09-12T06:52:54;19.40;99.90
40676;DHT22;26359;48.750;9.314;2023-09-12T06:55:20;19.40;99.90
40676;DHT22;26359;48.750;9.314;2023-09-12T06:57:45;19.40;99.90
40676;DHT22;26359;48.750;9.314;2023-09-12T07:00:12;19.40;99.90
40676;DHT22;26359;48.750;9.314;2023-09-12T07:02:38;19.50;99.90
40676;DHT22;26359;48.750;9.314;2023-09-12T07:05:04;19.50;99.90
40676;DHT22;26359;48.750;9.314;2023-09-12T07:07:30;19.50;99.90
40676;DHT22;26359;48.750;9.314;2023-09-12T07:09:56;19.50;99.90
40676;DHT22;26359;48.750;9.314;2023-09-12T07:12:22;19.60;99.90
40676;DHT22;26359;48.750;9.314;2023-09-12T07:14:47;19.70;99.90
40676;DHT22;26359;48.750;9.314;2023-09-12T07:17:13;19.80;99.90
40676;DHT22;26359;48.750;9.314;2023-09-12T07:19:39;19.80;99.90
40676;DHT22;26359;48.750;9.314;2023-09-12T07:22:04;19.90;99.90
40676;DHT22;26359;48.750;9.314;2023-09-12T07:24:31;19.90;99.90
40676;DHT22;26359;48.750;9.314;2023-09-12T07:26:56;20.00;99.90
40676;DHT22;26359;48.750;9.314;2023-09-12T07:29:23;20.10;99.90
40676;DHT22;26359;48.750;9.314;2023-09-12T07:31:52;20.20;99.90
40676;DHT22;26359;48.750;9.314;2023-09-12T07:34:19;20.20;99.90
40676;DHT22;26359;48.750;9.314;2023-09-12T07:36:44;20.30;99.90
40676;DHT22;26359;48.750;9.314;2023-09-12T07:39:10;20.30;99.90
40676;DHT22;26359;48.750;9.314;2023-09-12T07:41:36;20.40;99.90
40676;DHT22;26359;48.750;9.314;2023-09-12T07:44:01;20.40;99.90
40676;DHT22;26359;48.750;9.314;2023-09-12T07:46:30;20.50;99.90
40676;DHT22;26359;48.750;9.314;2023-09-12T07:48:55;20.60;99.90
40676;DHT22;26359;48.750;9.314;2023-09-12T07:51:22;20.70;99.90
40676;DHT22;26359;48.750;9.314;2023-09-12T07:53:48;20.80;99.90
40676;DHT22;26359;48.750;9.314;2023-09-12T07:56:14;20.80;99.90
40676;DHT22;26359;48.750;9.314;2023-09-12T07:58:39;20.90;99.90
40676;DHT22;26359;48.750;9.314;2023-09-12T08:01:06;21.00;99.90
40676;DHT22;26359;48.750;9.314;2023-09-12T08:03:33;21.00;99.90
40676;DHT22;26359;48.750;9.314;2023-09-12T08:06:00;21.10;99.90
40676;DHT22;26359;48.750;9.314;2023-09-12T08:08:26;21.20;99.90
40676;DHT22;26359;48.750;9.314;2023-09-12T08:10:52;21.30;99.90
40676;DHT22;26359;48.750;9.314;2023-09-12T08:13:18;21.40;99.90
40676;DHT22;26359;48.750;9.314;2023-09-12T08:15:43;21.50;99.90
40676;DHT22;26359;48.750;9.314;2023-09-12T08:18:09;21.60;99.90
40676;DHT22;26359;48.750;9.314;2023-09-12T08:20:35;21.60;99.90
40676;DHT22;26359;48.750;9.314;2023-09-12T08:23:00;21.70;99.90
40676;DHT22;26359;48.750;9.314;2023-09-12T08:25:26;21.80;99.90
40676;DHT22;26359;48.750;9.314;2023-09-12T08:27:52;21.90;99.90
40676;DHT22;26359;48.750;9.314;2023-09-12T08:30:18;22.10;99.90
40676;DHT22;26359;48.750;9.314;2023-09-12T08:32:43;22.10;99.90
40676;DHT22;26359;48.750;9.314;2023-09-12T08:35:10;22.30;99.90
40676;DHT22;26359;48.750;9.314;2023-09-12T08:37:38;22.40;99.90
40676;DHT22;26359;48.750;9.314;2023-09-12T08:40:04;22.40;99.90
40676;DHT22;26359;48.750;9.314;2023-09-12T08:42:35;22.40;99.90
40676;DHT22;26359;48.750;9.314;2023-09-12T08:45:04;22.50;99.90
40676;DHT22;26359;48.750;9.314;2023-09-12T08:47:30;22.50;99.90
40676;DHT22;26359;48.750;9.314;2023-09-12T08:49:57;22.60;99.90
40676;DHT22;26359;48.750;9.314;2023-09-12T08:52:23;22.60;99.90
40676;DHT22;26359;48.750;9.314;2023-09-12T08:54:49;22.60;99.90
40676;DHT22;26359;48.750;9.314;2023-09-12T08:57:15;22.70;99.90
40676;DHT22;26359;48.750;9.314;2023-09-12T08:59:43;22.80;99.90
40676;DHT22;26359;48.750;9.314;2023-09-12T09:02:09;22.90;99.90
40676;DHT22;26359;48.750;9.314;2023-09-12T09:04:35;23.10;99.90
40676;DHT22;26359;48.750;9.314;2023-09-12T09:07:03;23.20;99.90
40676;DHT22;26359;48.750;9.314;2023-09-12T09:09:29;23.20;99.90
40676;DHT22;26359;48.750;9.314;2023-09-12T09:11:55;23.40;99.90
40676;DHT22;26359;48.750;9.314;2023-09-12T09:14:21;23.50;99.90
40676;DHT22;26359;48.750;9.314;2023-09-12T09:16:46;23.70;99.90
40676;DHT22;26359;48.750;9.314;2023-09-12T09:19:12;23.70;99.90
40676;DHT22;26359;48.750;9.314;2023-09-12T09:21:38;23.80;99.90
40676;DHT22;26359;48.750;9.314;2023-09-12T09:24:10;24.00;99.90
40676;DHT22;26359;48.750;9.314;2023-09-12T09:26:47;24.10;99.90
40676;DHT22;26359;48.750;9.314;2023-09-12T09:29:16;24.40;99.90
40676;DHT22;26359;48.750;9.314;2023-09-12T09:31:43;24.60;99.90
40676;DHT22;26359;48.750;9.314;2023-09-12T09:36:49;24.80;99.90
40676;DHT22;26359;48.750;9.314;2023-09-12T09:39:16;25.00;99.90
40676;DHT22;26359;48.750;9.314;2023-09-12T09:41:42;25.10;99.90
40676;DHT22;26359;48.750;9.314;2023-09-12T09:44:08;25.30;99.90
40676;DHT22;26359;48.750;9.314;2023-09-12T09:46:37;25.30;99.90
40676;DHT22;26359;48.750;9.314;2023-09-12T09:49:03;25.40;99.90
40676;DHT22;26359;48.750;9.314;2023-09-12T09:51:30;25.60;99.90
40676;DHT22;26359;48.750;9.314;2023-09-12T09:53:57;25.90;99.90
40676;DHT22;26359;48.750;9.314;2023-09-12T09:56:24;26.10;99.90
40676;DHT22;26359;48.750;9.314;2023-09-12T09:58:52;26.20;99.90
40676;DHT22;26359;48.750;9.314;2023-09-12T10:01:29;26.30;99.90
40676;DHT22;26359;48.750;9.314;2023-09-12T10:04:00;26.40;99.90
40676;DHT22;26359;48.750;9.314;2023-09-12T10:06:27;26.80;99.90
40676;DHT22;26359;48.750;9.314;2023-09-12T10:08:55;27.20;99.90
40676;DHT22;26359;48.750;9.314;2023-09-12T10:11:24;27.30;99.90
40676;DHT22;26359;48.750;9.314;2023-09-12T10:13:54;27.60;99.90
40676;DHT22;26359;48.750;9.314;2023-09-12T10:16:24;28.00;99.90
40676;DHT22;26359;48.750;9.314;2023-09-12T10:24:20;29.00;99.90
40676;DHT22;26359;48.750;9.314;2023-09-12T10:26:49;29.10;99.90
40676;DHT22;26359;48.750;9.314;2023-09-12T10:29:15;29.30;99.90
40676;DHT22;26359;48.750;9.314;2023-09-12T10:31:41;29.60;99.90
40676;DHT22;26359;48.750;9.314;2023-09-12T10:34:08;29.70;99.90
40676;DHT22;26359;48.750;9.314;2023-09-12T10:36:39;29.80;99.90
40676;DHT22;26359;48.750;9.314;2023-09-12T10:39:06;29.90;99.90
40676;DHT22;26359;48.750;9.314;2023-09-12T10:41:33;29.80;99.90
40676;DHT22;26359;48.750;9.314;2023-09-12T10:44:02;30.00;99.90
40676;DHT22;26359;48.750;9.314;2023-09-12T10:46:38;30.30;99.90
40676;DHT22;26359;48.750;9.314;2023-09-12T10:49:08;30.50;99.90
40676;DHT22;26359;48.750;9.314;2023-09-12T10:51:38;30.60;99.90
40676;DHT22;26359;48.750;9.314;2023-09-12T10:54:05;30.70;99.90
40676;DHT22;26359;48.750;9.314;2023-09-12T10:56:33;30.90;99.90
40676;DHT22;26359;48.750;9.314;2023-09-12T11:01:34;31.10;99.90
40676;DHT22;26359;48.750;9.314;2023-09-12T11:06:44;31.40;99.90
40676;DHT22;26359;48.750;9.314;2023-09-12T11:09:17;31.50;99.90
40676;DHT22;26359;48.750;9.314;2023-09-12T11:11:49;31.70;99.90
40676;DHT22;26359;48.750;9.314;2023-09-12T11:14:15;31.80;99.90
40676;DHT22;26359;48.750;9.314;2023-09-12T11:16:42;32.00;99.90
40676;DHT22;26359;48.750;9.314;2023-09-12T11:19:21;32.20;99.90
40676;DHT22;26359;48.750;9.314;2023-09-12T11:21:53;32.20;99.90
40676;DHT22;26359;48.750;9.314;2023-09-12T11:24:19;32.50;99.90
40676;DHT22;26359;48.750;9.314;2023-09-12T11:26:58;32.50;99.90
40676;DHT22;26359;48.750;9.314;2023-09-12T11:29:37;32.70;99.90
40676;DHT22;26359;48.750;9.314;2023-09-12T11:32:03;32.90;99.90
40676;DHT22;26359;48.750;9.314;2023-09-12T11:34:35;33.10;99.90
40676;DHT22;26359;48.750;9.314;2023-09-12T11:37:02;33.00;99.90
40676;DHT22;26359;48.750;9.314;2023-09-12T11:39:31;33.00;99.90
40676;DHT22;26359;48.750;9.314;2023-09-12T11:41:59;33.00;99.70
40676;DHT22;26359;48.750;9.314;2023-09-12T11:44:25;33.30;99.80
40676;DHT22;26359;48.750;9.314;2023-09-12T11:46:52;33.60;98.60
40676;DHT22;26359;48.750;9.314;2023-09-12T11:49:19;33.80;97.20
40676;DHT22;26359;48.750;9.314;2023-09-12T11:51:50;33.80;97.90
40676;DHT22;26359;48.750;9.314;2023-09-12T11:54:21;33.80;97.10
40676;DHT22;26359;48.750;9.314;2023-09-12T11:56:49;33.90;96.80
40676;DHT22;26359;48.750;9.314;2023-09-12T11:59:22;34.00;97.40
40676;DHT22;26359;48.750;9.314;2023-09-12T12:01:48;34.10;96.00
40676;DHT22;26359;48.750;9.314;2023-09-12T12:04:14;34.10;95.80
40676;DHT22;26359;48.750;9.314;2023-09-12T12:06:40;34.30;95.00
40676;DHT22;26359;48.750;9.314;2023-09-12T12:09:06;34.40;94.10
40676;DHT22;26359;48.750;9.314;2023-09-12T12:11:33;34.30;92.80
40676;DHT22;26359;48.750;9.314;2023-09-12T12:14:17;34.20;93.60
40676;DHT22;26359;48.750;9.314;2023-09-12T12:16:45;34.20;93.90
40676;DHT22;26359;48.750;9.314;2023-09-12T12:19:11;34.30;92.70
40676;DHT22;26359;48.750;9.314;2023-09-12T12:21:38;34.30;93.20
40676;DHT22;26359;48.750;9.314;2023-09-12T12:24:05;34.50;92.10
40676;DHT22;26359;48.750;9.314;2023-09-12T12:26:32;34.60;92.30
40676;DHT22;26359;48.750;9.314;2023-09-12T12:29:00;34.80;92.40
40676;DHT22;26359;48.750;9.314;2023-09-12T12:31:26;35.10;91.20
40676;DHT22;26359;48.750;9.314;2023-09-12T12:33:55;35.00;92.20
40676;DHT22;26359;48.750;9.314;2023-09-12T12:36:21;35.00;90.30
40676;DHT22;26359;48.750;9.314;2023-09-12T12:38:48;34.90;90.30
40676;DHT22;26359;48.750;9.314;2023-09-12T12:41:25;34.90;88.40
40676;DHT22;26359;48.750;9.314;2023-09-12T12:43:52;35.00;88.80
40676;DHT22;26359;48.750;9.314;2023-09-12T12:46:18;35.10;86.70
40676;DHT22;26359;48.750;9.314;2023-09-12T12:48:50;35.10;86.20
40676;DHT22;26359;48.750;9.314;2023-09-12T12:51:23;35.30;86.40
40676;DHT22;26359;48.750;9.314;2023-09-12T12:53:53;35.50;88.90
40676;DHT22;26359;48.750;9.314;2023-09-12T12:56:26;35.70;87.50
40676;DHT22;26359;48.750;9.314;2023-09-12T12:58:55;35.70;87.00
40676;DHT22;26359;48.750;9.314;2023-09-12T13:01:21;35.70;82.30
40676;DHT22;26359;48.750;9.314;2023-09-12T13:03:47;35.60;83.50
40676;DHT22;26359;48.750;9.314;2023-09-12T13:06:14;35.40;85.80
40676;DHT22;26359;48.750;9.314;2023-09-12T13:08:45;35.10;89.70
40676;DHT22;26359;48.750;9.314;2023-09-12T13:11:12;35.10;91.10
40676;DHT22;26359;48.750;9.314;2023-09-12T13:13:38;35.10;91.10
40676;DHT22;26359;48.750;9.314;2023-09-12T13:16:05;35.10;90.40
40676;DHT22;26359;48.750;9.314;2023-09-12T13:18:32;35.20;89.70
40676;DHT22;26359;48.750;9.314;2023-09-12T13:20:58;35.20;86.80
40676;DHT22;26359;48.750;9.314;2023-09-12T13:23:23;35.30;85.10
40676;DHT22;26359;48.750;9.314;2023-09-12T13:25:50;35.30;89.90
40676;DHT22;26359;48.750;9.314;2023-09-12T13:28:16;35.40;89.80
40676;DHT22;26359;48.750;9.314;2023-09-12T13:30:42;35.30;87.80
40676;DHT22;26359;48.750;9.314;2023-09-12T13:33:07;35.30;87.70
40676;DHT22;26359;48.750;9.314;2023-09-12T13:35:33;35.40;87.70
40676;DHT22;26359;48.750;9.314;2023-09-12T13:37:58;35.10;88.20
40676;DHT22;26359;48.750;9.314;2023-09-12T13:40:24;35.00;88.30
40676;DHT22;26359;48.750;9.314;2023-09-12T13:42:49;34.80;88.60
40676;DHT22;26359;48.750;9.314;2023-09-12T13:45:15;34.90;87.10
40676;DHT22;26359;48.750;9.314;2023-09-12T13:47:40;34.90;88.70
40676;DHT22;26359;48.750;9.314;2023-09-12T13:50:08;34.90;90.00
40676;DHT22;26359;48.750;9.314;2023-09-12T13:52:33;34.80;87.80
40676;DHT22;26359;48.750;9.314;2023-09-12T13:54:59;34.70;87.80
40676;DHT22;26359;48.750;9.314;2023-09-12T13:57:28;34.60;87.30
40676;DHT22;26359;48.750;9.314;2023-09-12T13:59:54;34.40;88.10
40676;DHT22;26359;48.750;9.314;2023-09-12T14:02:20;34.30;89.00
40676;DHT22;26359;48.750;9.314;2023-09-12T14:04:45;34.00;88.80
40676;DHT22;26359;48.750;9.314;2023-09-12T14:07:11;33.60;89.30
40676;DHT22;26359;48.750;9.314;2023-09-12T14:09:36;33.40;90.50
40676;DHT22;26359;48.750;9.314;2023-09-12T14:12:02;33.30;90.70
40676;DHT22;26359;48.750;9.314;2023-09-12T14:14:28;33.40;91.50
40676;DHT22;26359;48.750;9.314;2023-09-12T14:16:53;33.50;90.80
40676;DHT22;26359;48.750;9.314;2023-09-12T14:19:19;33.50;90.20
40676;DHT22;26359;48.750;9.314;2023-09-12T14:21:45;33.50;91.10
40676;DHT22;26359;48.750;9.314;2023-09-12T14:24:10;33.60;90.70
40676;DHT22;26359;48.750;9.314;2023-09-12T14:26:36;33.50;90.30
40676;DHT22;26359;48.750;9.314;2023-09-12T14:29:01;33.30;90.20
40676;DHT22;26359;48.750;9.314;2023-09-12T14:31:27;32.70;90.40
40676;DHT22;26359;48.750;9.314;2023-09-12T14:33:53;32.20;90.90
40676;DHT22;26359;48.750;9.314;2023-09-12T14:36:18;31.80;91.60
40676;DHT22;26359;48.750;9.314;2023-09-12T14:38:44;31.50;91.60
40676;DHT22;26359;48.750;9.314;2023-09-12T14:41:12;31.30;91.80
40676;DHT22;26359;48.750;9.314;2023-09-12T14:43:38;31.10;92.30
40676;DHT22;26359;48.750;9.314;2023-09-12T14:46:04;31.00;92.70
40676;DHT22;26359;48.750;9.314;2023-09-12T14:48:31;30.90;92.80
40676;DHT22;26359;48.750;9.314;2023-09-12T14:50:59;30.70;93.50
40676;DHT22;26359;48.750;9.314;2023-09-12T14:53:26;30.60;93.10
40676;DHT22;26359;48.750;9.314;2023-09-12T14:55:53;30.40;93.80
40676;DHT22;26359;48.750;9.314;2023-09-12T14:58:18;30.30;94.40
40676;DHT22;26359;48.750;9.314;2023-09-12T15:00:44;30.20;94.20
40676;DHT22;26359;48.750;9.314;2023-09-12T15:03:10;30.10;95.00
40676;DHT22;26359;48.750;9.314;2023-09-12T15:05:35;30.10;95.00
40676;DHT22;26359;48.750;9.314;2023-09-12T15:08:01;30.00;95.30
40676;DHT22;26359;48.750;9.314;2023-09-12T15:10:26;30.00;95.50
40676;DHT22;26359;48.750;9.314;2023-09-12T15:12:52;29.90;96.20
40676;DHT22;26359;48.750;9.314;2023-09-12T15:15:19;29.90;96.10
40676;DHT22;26359;48.750;9.314;2023-09-12T15:17:44;29.80;96.40
40676;DHT22;26359;48.750;9.314;2023-09-12T15:20:10;29.70;96.80
40676;DHT22;26359;48.750;9.314;2023-09-12T15:22:36;29.60;97.20
40676;DHT22;26359;48.750;9.314;2023-09-12T15:25:02;29.60;97.40
40676;DHT22;26359;48.750;9.314;2023-09-12T15:27:28;29.50;97.60
40676;DHT22;26359;48.750;9.314;2023-09-12T15:29:54;29.50;97.90
40676;DHT22;26359;48.750;9.314;2023-09-12T15:32:20;29.40;97.90
40676;DHT22;26359;48.750;9.314;2023-09-12T15:34:46;29.40;98.30
40676;DHT22;26359;48.750;9.314;2023-09-12T15:37:13;29.30;98.30
40676;DHT22;26359;48.750;9.314;2023-09-12T15:39:39;29.30;98.50
40676;DHT22;26359;48.750;9.314;2023-09-12T15:42:05;29.20;99.20
40676;DHT22;26359;48.750;9.314;2023-09-12T15:44:31;29.10;98.90